Observations for Trim Market St
| Time | AQI | Temp °C | Hum % | Pres Pa | CO μg/m³ | H₂S μg/m³ | NO μg/m³ | NO₂ μg/m³ | O₃ μg/m³ | SO₂ μg/m³ | PM1 μg/m³ | PM2.5 μg/m³ | PM10 μg/m³ |
|---|---|---|---|---|---|---|---|---|---|---|---|---|---|
| Tuesday 18 August 2026 | |||||||||||||
| 10:20 | 2 | 24.1 | 54 | 55,671 | 0 | 0 | 2.92 | 4.55 | 30.62 | 0 | 0 | 1.77 | 1.95 |
| 10:13 | 2 | 24.3 | 55 | 55,778 | 0.14 | 0 | 2.23 | 5.62 | 10.67 | 0 | 0 | 2.24 | 3.23 |
| 10:12 | 2 | 24.3 | 55 | 55,865 | 0.36 | 0 | 2.23 | 7.05 | 12.08 | 0 | 0 | 1.73 | 1.8 |
| 10:11 | 2 | 24.4 | 55 | 55,961 | 0.94 | 0 | 2.16 | 10.62 | 24.69 | 0 | 0 | 1.73 | 1.81 |
| 10:10 | 2 | 24.4 | 55 | 55,900 | 0.18 | 0 | 2.17 | 10.83 | 28.06 | 0 | 0 | 1.72 | 1.81 |
| 10:09 | 2 | 24.4 | 55 | 55,836 | 0.22 | 0 | 2.17 | 9.81 | 31.74 | 0 | 0 | 2.23 | 2.53 |
| 10:08 | 2 | 24.4 | 56 | 55,834 | 0.25 | 0 | 2.25 | 10.27 | 16.99 | 0 | 0 | 2.21 | 2.54 |
| 10:07 | 2 | 24.3 | 56 | 55,889 | 0.27 | 0 | 2.8 | 11.57 | 34.77 | 0 | 0 | 1.7 | 1.83 |
| 10:06 | 2 | 24.3 | 56 | 55,964 | 0.43 | 0 | 2.85 | 10.18 | 8.54 | 0 | 0 | 2.2 | 2.56 |
| 10:05 | 2 | 24.3 | 56 | 56,091 | 0.28 | 0 | 2.71 | 11.18 | 30.77 | 0 | 0 | 1.67 | 1.87 |
| 10:04 | 2 | 24.2 | 57 | 56,243 | 0.26 | 0 | 2.96 | 11.01 | 12.97 | 0 | 0 | 1.66 | 1.88 |
| 10:03 | 2 | 24.2 | 57 | 56,466 | 0.21 | 0 | 2.92 | 9.3 | 26.53 | 0 | 0 | 1.64 | 1.91 |
| 10:02 | 2 | 24.1 | 58 | 56,711 | 0.23 | 0 | 2.79 | 9.43 | 35.78 | 0 | 0 | 2.13 | 4.02 |
| 10:01 | 2 | 23.9 | 58 | 56,967 | 0.38 | 0 | 3.11 | 8.48 | 5.57 | 0 | 0 | 1.6 | 1.95 |
| 10:00 | 2 | 23.8 | 58 | 57,286 | 0.22 | 0 | 3.58 | 11.41 | 42.47 | 0 | 0 | 1.59 | 2.66 |
| 09:58 | 2 | 23.5 | 59 | 57,454 | 0.22 | 0 | 3.39 | 12.16 | 28.1 | 0 | 0 | 1.55 | 2.01 |
| 09:55 | 2 | 23 | 60 | 57,487 | 0.14 | 0 | 3.64 | 9.3 | 51.83 | 0 | 0 | 1.51 | 2.05 |
| 09:54 | 2 | 22.9 | 61 | 57,466 | 0.16 | 0 | 3.91 | 7.09 | 23.15 | 0 | 0 | 1.5 | 2.07 |
| 09:48 | 2 | 22.2 | 62 | 57,308 | 0.23 | 0 | 3.05 | 11.47 | 49.13 | 0 | 0 | 1.44 | 2.13 |
| 09:43 | 2 | 21.7 | 63 | 57,165 | 0.21 | 0 | 4.52 | 15.86 | 40.28 | 0 | 0 | 1.89 | 2.85 |